createdAt,value
2023-08-14T00:01:57.096Z,86.94
2023-08-14T00:04:23.596Z,87.02
2023-08-14T00:06:50.082Z,86.99
2023-08-14T00:09:16.680Z,87.31
2023-08-14T00:11:43.222Z,87.41
2023-08-14T00:14:09.750Z,87.56
2023-08-14T00:16:36.298Z,87.64
2023-08-14T00:19:02.979Z,87.61
2023-08-14T00:21:29.776Z,87.79
2023-08-14T00:23:56.247Z,87.65
2023-08-14T00:26:22.713Z,88.00
2023-08-14T00:28:49.207Z,88.15
2023-08-14T00:31:17.914Z,88.17
2023-08-14T00:33:44.367Z,88.13
2023-08-14T00:36:10.803Z,88.28
2023-08-14T00:38:37.221Z,88.29
2023-08-14T00:41:03.846Z,87.98
2023-08-14T00:43:30.411Z,88.21
2023-08-14T00:45:57.479Z,88.32
2023-08-14T00:48:26.140Z,88.15
2023-08-14T00:50:54.758Z,88.37
2023-08-14T00:53:21.693Z,88.22
2023-08-14T00:55:48.654Z,88.52
2023-08-14T00:58:16.240Z,88.33
2023-08-14T01:00:44.163Z,88.69
2023-08-14T01:03:11.314Z,88.45
2023-08-14T01:05:38.006Z,88.72
2023-08-14T01:08:04.695Z,88.66
2023-08-14T01:11:00.053Z,88.75
2023-08-14T01:13:47.675Z,89.11
2023-08-14T01:16:20.730Z,89.12
2023-08-14T01:18:48.671Z,89.06
2023-08-14T01:21:18.223Z,89.28
2023-08-14T01:24:07.804Z,89.19
2023-08-14T01:26:35.590Z,89.00
2023-08-14T01:29:04.374Z,89.03
2023-08-14T01:31:31.351Z,89.08
2023-08-14T01:33:58.650Z,89.20
2023-08-14T01:36:33.760Z,89.45
2023-08-14T01:39:09.585Z,89.48
2023-08-14T01:42:19.079Z,89.85
2023-08-14T01:44:49.747Z,89.71
2023-08-14T01:47:19.631Z,89.66
2023-08-14T01:49:47.023Z,89.77
2023-08-14T01:52:13.730Z,89.61
2023-08-14T01:54:40.321Z,89.68
2023-08-14T01:57:06.867Z,89.62
2023-08-14T01:59:48.264Z,89.75
2023-08-14T02:02:15.304Z,89.50
2023-08-14T02:04:41.962Z,89.56
2023-08-14T02:07:10.824Z,89.53
2023-08-14T02:09:37.989Z,89.52
2023-08-14T02:12:04.919Z,89.72
2023-08-14T02:14:31.886Z,89.93
2023-08-14T02:16:58.468Z,89.87
2023-08-14T02:19:24.981Z,89.85
2023-08-14T02:21:51.461Z,90.02
2023-08-14T02:24:17.921Z,90.02
2023-08-14T02:26:44.394Z,89.93
2023-08-14T02:29:10.860Z,90.12
2023-08-14T02:31:37.457Z,89.88
2023-08-14T02:34:04.634Z,89.70
2023-08-14T02:36:31.078Z,89.93
2023-08-14T02:38:57.591Z,89.88
2023-08-14T02:41:24.085Z,90.02
2023-08-14T02:43:50.603Z,89.98
2023-08-14T02:46:17.313Z,89.87
2023-08-14T02:48:46.289Z,90.26
2023-08-14T02:51:12.838Z,90.25
2023-08-14T02:53:39.266Z,90.09
2023-08-14T02:56:05.760Z,90.23
2023-08-14T02:58:32.680Z,90.40
2023-08-14T03:00:59.268Z,90.66
2023-08-14T03:03:25.873Z,90.67
2023-08-14T03:05:52.486Z,90.53
2023-08-14T03:08:18.952Z,90.49
2023-08-14T03:10:45.416Z,90.65
2023-08-14T03:13:11.886Z,90.88
2023-08-14T03:15:38.410Z,90.79
2023-08-14T03:18:04.996Z,90.85
2023-08-14T03:20:31.539Z,90.76
2023-08-14T03:22:58.081Z,90.80
2023-08-14T03:25:24.668Z,91.00
2023-08-14T03:27:51.171Z,90.79
2023-08-14T03:30:17.764Z,90.80
2023-08-14T03:32:44.342Z,90.76
2023-08-14T03:35:11.109Z,90.85
2023-08-14T03:37:37.655Z,91.18
2023-08-14T03:40:04.512Z,91.09
2023-08-14T03:42:31.009Z,90.84
2023-08-14T03:44:57.494Z,91.18
2023-08-14T03:47:23.941Z,91.17
2023-08-14T03:49:50.508Z,91.52
2023-08-14T03:52:18.783Z,91.52
2023-08-14T03:54:45.472Z,91.55
2023-08-14T03:57:11.958Z,91.69
2023-08-14T03:59:38.503Z,91.88
2023-08-14T04:02:05.142Z,91.98
2023-08-14T04:04:31.624Z,92.12
2023-08-14T04:06:58.993Z,91.90
2023-08-14T04:09:25.603Z,91.85
2023-08-14T04:11:52.079Z,91.86
2023-08-14T04:14:18.537Z,91.80
2023-08-14T04:16:45.565Z,92.00
2023-08-14T04:19:15.812Z,91.86
2023-08-14T04:21:43.406Z,92.07
2023-08-14T04:24:10.583Z,91.98
2023-08-14T04:26:40.539Z,92.20
2023-08-14T04:29:08.652Z,92.20
2023-08-14T04:31:39.535Z,92.24
2023-08-14T04:34:06.639Z,92.22
2023-08-14T04:36:35.063Z,92.49
2023-08-14T04:39:02.455Z,92.38
2023-08-14T04:41:29.108Z,92.37
2023-08-14T04:43:55.916Z,92.35
2023-08-14T04:46:41.148Z,92.38
2023-08-14T04:49:15.880Z,92.42
2023-08-14T04:51:42.280Z,92.58
2023-08-14T04:54:08.921Z,92.70
2023-08-14T04:56:35.663Z,92.96
2023-08-14T04:59:02.151Z,93.39
2023-08-14T05:01:28.730Z,93.36
2023-08-14T05:03:55.266Z,93.55
2023-08-14T05:06:21.794Z,93.75
2023-08-14T05:08:48.578Z,93.97
2023-08-14T05:11:15.146Z,94.05
2023-08-14T05:13:45.373Z,94.10
2023-08-14T05:16:12.010Z,94.23
2023-08-14T05:18:38.708Z,94.09
2023-08-14T05:21:05.451Z,93.95
2023-08-14T05:23:31.901Z,94.18
2023-08-14T05:25:58.416Z,94.39
2023-08-14T05:28:24.980Z,94.33
2023-08-14T05:30:51.477Z,94.49
2023-08-14T05:33:18.041Z,94.29
2023-08-14T05:35:44.543Z,93.84
2023-08-14T05:38:11.064Z,94.43
2023-08-14T05:40:37.587Z,94.64
2023-08-14T05:43:07.993Z,94.66
2023-08-14T05:45:44.001Z,94.75
2023-08-14T05:48:11.610Z,94.45
2023-08-14T05:50:38.708Z,94.62
2023-08-14T05:53:06.111Z,94.67
2023-08-14T05:55:37.604Z,94.74
2023-08-14T05:58:04.538Z,94.74
2023-08-14T06:00:31.565Z,94.64
2023-08-14T06:02:58.415Z,94.63
2023-08-14T06:05:25.401Z,94.45
2023-08-14T06:07:53.673Z,94.79
2023-08-14T06:10:20.984Z,95.01
2023-08-14T06:12:50.134Z,94.87
2023-08-14T06:15:18.900Z,94.71
2023-08-14T06:17:45.537Z,95.07
2023-08-14T06:20:12.605Z,95.07
2023-08-14T06:22:45.011Z,95.04
2023-08-14T06:25:15.318Z,95.29
2023-08-14T06:27:42.440Z,95.46
2023-08-14T06:30:11.930Z,95.41
2023-08-14T06:32:39.333Z,94.97
2023-08-14T06:35:07.196Z,92.81
2023-08-14T06:37:34.012Z,92.02
2023-08-14T06:40:00.571Z,92.69
2023-08-14T06:42:27.185Z,93.00
2023-08-14T06:44:53.733Z,91.93
2023-08-14T06:47:20.327Z,91.39
2023-08-14T06:49:46.827Z,90.76
2023-08-14T06:52:14.840Z,91.56
2023-08-14T06:54:41.457Z,91.88
2023-08-14T06:57:09.103Z,92.54
2023-08-14T06:59:36.205Z,91.87
2023-08-14T07:02:02.926Z,91.29
2023-08-14T07:04:29.532Z,89.04
2023-08-14T07:06:56.087Z,88.62
2023-08-14T07:09:22.974Z,87.73
2023-08-14T07:11:49.925Z,89.27
2023-08-14T07:14:16.477Z,87.21
2023-08-14T07:16:43.200Z,87.56
2023-08-14T07:19:09.990Z,87.07
2023-08-14T07:21:36.586Z,86.54
2023-08-14T07:24:03.434Z,86.37
2023-08-14T07:26:30.402Z,85.33
2023-08-14T07:28:56.884Z,85.15
2023-08-14T07:31:24.041Z,85.43
2023-08-14T07:33:50.585Z,85.65
2023-08-14T07:36:17.214Z,85.04
2023-08-14T07:38:43.746Z,84.38
2023-08-14T07:41:10.322Z,81.39
2023-08-14T07:43:36.763Z,81.36
2023-08-14T07:46:03.231Z,81.93
2023-08-14T07:48:29.788Z,82.33
2023-08-14T07:50:56.294Z,82.95
2023-08-14T07:53:22.915Z,81.98
2023-08-14T07:55:49.966Z,78.74
2023-08-14T07:58:17.421Z,78.69
2023-08-14T08:00:44.662Z,79.44
2023-08-14T08:03:11.218Z,78.83
2023-08-14T08:05:38.291Z,78.28
2023-08-14T08:08:05.694Z,75.99
2023-08-14T08:10:32.544Z,74.35
2023-08-14T08:12:59.056Z,73.73
2023-08-14T08:15:25.679Z,73.06
2023-08-14T08:17:52.370Z,73.49
2023-08-14T08:20:19.332Z,71.50
2023-08-14T08:22:45.906Z,70.01
2023-08-14T08:25:12.526Z,69.87
2023-08-14T08:27:39.152Z,71.13
2023-08-14T08:30:06.237Z,69.88
2023-08-14T08:32:32.850Z,69.52
2023-08-14T08:34:59.569Z,68.30
2023-08-14T08:37:26.179Z,68.90
2023-08-14T08:39:53.859Z,68.43
2023-08-14T08:42:21.244Z,65.73
2023-08-14T08:44:50.797Z,65.41
2023-08-14T08:47:22.747Z,64.77
2023-08-14T08:49:49.688Z,64.89
2023-08-14T08:52:16.799Z,62.87
2023-08-14T08:54:43.738Z,63.59
2023-08-14T08:57:10.307Z,63.37
2023-08-14T08:59:39.432Z,62.32
2023-08-14T09:02:05.957Z,61.13
2023-08-14T09:04:32.576Z,59.91
2023-08-14T09:06:59.094Z,62.03
2023-08-14T09:09:25.671Z,61.68
2023-08-14T09:11:52.237Z,58.59
2023-08-14T09:14:18.978Z,57.86
2023-08-14T09:16:45.822Z,57.52
2023-08-14T09:19:16.034Z,56.33
2023-08-14T09:21:44.881Z,56.55
2023-08-14T09:24:13.754Z,55.76
2023-08-14T09:26:43.805Z,54.00
2023-08-14T09:29:13.057Z,53.91
2023-08-14T09:31:44.473Z,54.42
2023-08-14T09:34:17.902Z,54.08
2023-08-14T09:36:44.837Z,53.64
2023-08-14T09:39:11.733Z,53.87
2023-08-14T09:41:38.229Z,52.93
2023-08-14T09:44:05.108Z,52.10
2023-08-14T09:46:32.492Z,52.02
2023-08-14T09:48:59.144Z,52.37
2023-08-14T09:51:25.703Z,51.53
2023-08-14T09:53:57.575Z,52.88
2023-08-14T09:56:25.184Z,52.60
2023-08-14T09:58:53.838Z,55.81
2023-08-14T10:01:22.232Z,55.34
2023-08-14T10:03:53.739Z,55.01
2023-08-14T10:06:25.706Z,53.98
2023-08-14T10:08:56.730Z,53.49
2023-08-14T10:11:27.506Z,54.89
2023-08-14T10:13:58.343Z,55.49
2023-08-14T10:16:28.838Z,55.13
2023-08-14T10:18:57.410Z,53.49
2023-08-14T10:21:31.269Z,55.38
2023-08-14T10:24:00.464Z,54.69
2023-08-14T10:26:28.197Z,54.81
2023-08-14T10:28:57.217Z,55.72
2023-08-14T10:31:24.231Z,53.66
2023-08-14T10:33:51.249Z,51.91
2023-08-14T10:36:21.924Z,51.90
2023-08-14T10:41:22.884Z,54.41
2023-08-14T10:43:51.747Z,53.80
2023-08-14T10:46:18.735Z,54.64
2023-08-14T10:48:49.740Z,51.10
2023-08-14T10:51:21.732Z,51.64
2023-08-14T10:53:48.654Z,50.69
2023-08-14T10:56:15.277Z,49.10
2023-08-14T10:58:48.933Z,50.20
2023-08-14T11:01:16.123Z,52.35
2023-08-14T11:03:55.892Z,52.40
2023-08-14T11:07:00.929Z,52.61
2023-08-14T11:09:32.152Z,49.50
2023-08-14T11:12:02.985Z,51.95
2023-08-14T11:14:29.491Z,52.68
2023-08-14T11:16:57.191Z,48.26
2023-08-14T11:19:23.737Z,49.47
2023-08-14T11:21:50.425Z,47.43
2023-08-14T11:24:17.399Z,49.86
2023-08-14T11:26:43.872Z,48.13
2023-08-14T11:29:10.357Z,46.73
2023-08-14T11:31:42.068Z,46.24
2023-08-14T11:34:15.666Z,49.43
2023-08-14T11:37:06.416Z,47.29
2023-08-14T11:39:34.677Z,45.52
2023-08-14T11:42:03.088Z,46.87
2023-08-14T11:44:29.705Z,45.96
2023-08-14T11:46:57.538Z,45.22
2023-08-14T11:49:25.360Z,47.65
2023-08-14T11:51:53.299Z,43.37
2023-08-14T11:54:20.157Z,44.03
2023-08-14T11:56:48.622Z,45.12
2023-08-14T11:59:16.946Z,46.09
2023-08-14T12:01:43.530Z,45.62
2023-08-14T12:04:11.393Z,47.05
2023-08-14T12:06:37.949Z,48.24
2023-08-14T12:09:09.011Z,45.93
2023-08-14T12:11:38.158Z,47.52
2023-08-14T12:14:06.475Z,48.04
2023-08-14T12:16:33.100Z,46.54
2023-08-14T12:18:59.644Z,46.97
2023-08-14T12:21:30.005Z,48.25
2023-08-14T12:23:56.550Z,46.82
2023-08-14T12:26:23.666Z,45.99
2023-08-14T12:28:50.396Z,45.30
2023-08-14T12:31:16.951Z,46.95
2023-08-14T12:33:45.196Z,48.78
2023-08-14T12:36:13.632Z,47.30
2023-08-14T12:38:40.138Z,45.54
2023-08-14T12:41:06.860Z,47.95
2023-08-14T12:43:40.371Z,48.39
2023-08-14T12:46:10.634Z,47.25
2023-08-14T12:48:37.534Z,47.33
2023-08-14T12:51:04.808Z,45.75
2023-08-14T12:53:31.429Z,46.92
2023-08-14T12:56:03.573Z,45.86
2023-08-14T12:58:31.106Z,46.93
2023-08-14T13:01:03.814Z,46.09
2023-08-14T13:03:36.526Z,46.73
2023-08-14T13:06:05.442Z,45.80
2023-08-14T13:08:32.105Z,45.77
2023-08-14T13:10:58.643Z,46.85
2023-08-14T13:13:28.130Z,45.35
2023-08-14T13:15:55.582Z,46.16
2023-08-14T13:18:22.805Z,45.90
2023-08-14T13:20:49.717Z,46.66
2023-08-14T13:23:17.002Z,47.12
2023-08-14T13:25:43.736Z,47.08
2023-08-14T13:28:10.453Z,47.47
2023-08-14T13:30:37.238Z,47.84
2023-08-14T13:33:04.249Z,47.21
2023-08-14T13:35:31.432Z,48.64
2023-08-14T13:37:59.402Z,46.33
2023-08-14T13:40:25.891Z,46.69
2023-08-14T13:42:52.533Z,47.52
2023-08-14T13:45:19.472Z,46.09
2023-08-14T13:47:53.859Z,49.26
2023-08-14T13:50:32.477Z,48.65
2023-08-14T13:53:04.055Z,49.39
2023-08-14T13:55:34.170Z,47.75
2023-08-14T13:58:01.625Z,48.92
2023-08-14T14:00:30.349Z,50.39
2023-08-14T14:02:58.860Z,49.40
2023-08-14T14:05:25.958Z,47.85
2023-08-14T14:07:55.810Z,48.70
2023-08-14T14:10:24.984Z,48.55
2023-08-14T14:15:21.754Z,46.96
2023-08-14T14:17:48.600Z,47.60
2023-08-14T14:20:16.825Z,48.71
2023-08-14T14:22:43.692Z,49.17
2023-08-14T14:25:10.938Z,47.80
2023-08-14T14:27:38.630Z,46.01
2023-08-14T14:30:05.915Z,45.83
2023-08-14T14:32:32.366Z,45.59
2023-08-14T14:34:58.979Z,45.08
2023-08-14T14:37:25.479Z,47.20
2023-08-14T14:39:51.902Z,47.04
2023-08-14T14:42:19.984Z,46.48
2023-08-14T14:44:48.146Z,47.62
2023-08-14T14:47:15.051Z,47.07
2023-08-14T14:49:41.577Z,45.13
2023-08-14T14:52:08.072Z,45.55
2023-08-14T14:54:34.576Z,45.17
2023-08-14T14:57:01.021Z,45.12
2023-08-14T14:59:27.516Z,45.52
2023-08-14T15:01:53.989Z,45.72
2023-08-14T15:04:20.442Z,45.71
2023-08-14T15:06:46.919Z,44.25
2023-08-14T15:09:13.621Z,45.23
2023-08-14T15:11:40.135Z,44.63
2023-08-14T15:14:06.570Z,44.26
2023-08-14T15:16:33.737Z,45.47
2023-08-14T15:19:00.463Z,45.46
2023-08-14T15:21:26.937Z,46.56
2023-08-14T15:23:53.469Z,47.08
2023-08-14T15:26:20.645Z,45.29
2023-08-14T15:28:47.103Z,46.40
2023-08-14T15:31:13.721Z,45.59
2023-08-14T15:33:40.319Z,45.63
2023-08-14T15:36:06.794Z,45.07
2023-08-14T15:38:33.296Z,44.15
2023-08-14T15:40:59.860Z,44.87
2023-08-14T15:43:26.843Z,44.11
2023-08-14T15:46:04.301Z,44.89
2023-08-14T15:48:31.062Z,46.21
2023-08-14T15:50:57.587Z,46.34
2023-08-14T15:53:24.069Z,45.60
2023-08-14T15:55:50.717Z,45.06
2023-08-14T15:58:17.572Z,46.54
2023-08-14T16:00:45.156Z,46.46
2023-08-14T16:03:12.275Z,45.20
2023-08-14T16:05:39.266Z,45.95
2023-08-14T16:08:06.540Z,44.40
2023-08-14T16:10:33.025Z,45.92
2023-08-14T16:12:59.570Z,45.54
2023-08-14T16:15:26.076Z,45.19
2023-08-14T16:17:52.651Z,44.85
2023-08-14T16:20:19.174Z,45.51
2023-08-14T16:22:45.686Z,46.45
2023-08-14T16:25:12.231Z,45.25
2023-08-14T16:27:38.749Z,46.41
2023-08-14T16:30:05.746Z,45.25
2023-08-14T16:32:32.335Z,46.40
2023-08-14T16:34:59.343Z,46.03
2023-08-14T16:37:25.928Z,46.18
2023-08-14T16:39:52.415Z,46.20
2023-08-14T16:42:18.992Z,46.49
2023-08-14T16:44:45.562Z,45.99
2023-08-14T16:47:11.989Z,46.49
2023-08-14T16:49:38.436Z,46.59
2023-08-14T16:52:05.221Z,45.46
2023-08-14T16:54:31.629Z,45.66
2023-08-14T16:56:58.121Z,45.98
2023-08-14T16:59:24.624Z,46.53
2023-08-14T17:01:51.127Z,47.82
2023-08-14T17:04:17.683Z,44.90
2023-08-14T17:06:44.251Z,44.83
2023-08-14T17:09:14.952Z,45.18
2023-08-14T17:11:41.959Z,45.55
2023-08-14T17:14:08.537Z,43.25
2023-08-14T17:16:35.168Z,44.61
2023-08-14T17:19:01.782Z,40.97
2023-08-14T17:21:28.224Z,41.93
2023-08-14T17:23:54.697Z,43.09
2023-08-14T17:26:21.147Z,44.49
2023-08-14T17:28:47.619Z,45.49
2023-08-14T17:31:15.813Z,45.14
2023-08-14T17:33:42.284Z,45.52
2023-08-14T17:36:08.821Z,45.80
2023-08-14T17:38:35.292Z,46.07
2023-08-14T17:41:01.940Z,46.94
2023-08-14T17:43:28.487Z,47.10
2023-08-14T17:45:56.270Z,46.58
2023-08-14T17:48:22.729Z,46.61
2023-08-14T17:50:51.736Z,46.93
2023-08-14T17:53:19.086Z,47.67
2023-08-14T17:55:45.568Z,47.82
2023-08-14T17:58:12.174Z,48.70
2023-08-14T18:00:38.665Z,48.71
2023-08-14T18:03:05.504Z,49.50
2023-08-14T18:05:32.048Z,50.35
2023-08-14T18:07:58.482Z,50.26
2023-08-14T18:10:24.941Z,51.01
2023-08-14T18:12:51.331Z,51.38
2023-08-14T18:15:18.860Z,52.04
2023-08-14T18:17:45.344Z,51.79
2023-08-14T18:20:12.003Z,53.42
2023-08-14T18:22:38.593Z,53.52
2023-08-14T18:25:05.406Z,53.79
2023-08-14T18:27:32.082Z,54.49
2023-08-14T18:29:58.598Z,55.02
2023-08-14T18:32:25.182Z,55.08
2023-08-14T18:34:51.939Z,55.51
2023-08-14T18:37:18.713Z,56.00
2023-08-14T18:39:45.383Z,57.40
2023-08-14T18:42:11.901Z,58.34
2023-08-14T18:44:38.345Z,59.27
2023-08-14T18:47:04.961Z,59.59
2023-08-14T18:49:32.764Z,59.83
2023-08-14T18:51:59.260Z,60.13
2023-08-14T18:54:26.046Z,61.04
2023-08-14T18:56:52.840Z,61.16
2023-08-14T18:59:23.683Z,61.25
2023-08-14T19:01:51.497Z,61.92
2023-08-14T19:04:25.650Z,62.10
2023-08-14T19:06:59.837Z,62.75
2023-08-14T19:09:26.312Z,63.22
2023-08-14T19:11:52.804Z,63.54
2023-08-14T19:14:19.413Z,63.53
2023-08-14T19:16:45.956Z,63.82
2023-08-14T19:19:12.390Z,63.90
2023-08-14T19:21:38.863Z,63.90
2023-08-14T19:24:05.790Z,64.73
2023-08-14T19:26:32.304Z,64.83
2023-08-14T19:29:01.312Z,64.49
2023-08-14T19:31:27.862Z,64.93
2023-08-14T19:33:59.367Z,65.39
2023-08-14T19:36:26.329Z,65.42
2023-08-14T19:38:52.751Z,66.02
2023-08-14T19:41:19.161Z,65.99
2023-08-14T19:43:45.665Z,66.35
2023-08-14T19:46:12.143Z,66.27
2023-08-14T19:48:38.580Z,67.24
2023-08-14T19:51:05.198Z,67.55
2023-08-14T19:53:31.745Z,67.85
2023-08-14T19:55:58.320Z,68.87
2023-08-14T19:58:24.792Z,69.43
2023-08-14T20:00:51.306Z,69.43
2023-08-14T20:03:17.837Z,69.62
2023-08-14T20:05:48.896Z,69.59
2023-08-14T20:08:15.803Z,69.78
2023-08-14T20:10:42.848Z,70.38
2023-08-14T20:13:09.484Z,70.33
2023-08-14T20:15:42.437Z,70.53
2023-08-14T20:18:08.938Z,70.48
2023-08-14T20:20:39.136Z,70.38
2023-08-14T20:23:05.591Z,70.57
2023-08-14T20:25:32.102Z,70.89
2023-08-14T20:27:58.772Z,71.70
2023-08-14T20:30:25.303Z,71.47
2023-08-14T20:32:51.820Z,71.99
2023-08-14T20:35:18.482Z,72.48
2023-08-14T20:37:45.019Z,72.49
2023-08-14T20:40:11.977Z,72.54
2023-08-14T20:42:38.756Z,72.72
2023-08-14T20:45:05.828Z,72.94
2023-08-14T20:47:32.270Z,73.61
2023-08-14T20:49:58.942Z,73.96
2023-08-14T20:52:25.463Z,74.11
2023-08-14T20:54:52.480Z,74.09
2023-08-14T20:57:19.695Z,74.32
2023-08-14T20:59:46.349Z,74.46
2023-08-14T21:02:12.923Z,74.30
2023-08-14T21:04:39.388Z,74.52
2023-08-14T21:07:06.154Z,75.02
2023-08-14T21:09:32.649Z,74.96
2023-08-14T21:11:59.900Z,75.21
2023-08-14T21:14:26.421Z,75.52
2023-08-14T21:16:52.945Z,75.79
2023-08-14T21:19:19.460Z,76.16
2023-08-14T21:21:46.900Z,76.04
2023-08-14T21:24:13.656Z,76.10
2023-08-14T21:26:40.228Z,76.62
2023-08-14T21:29:06.760Z,76.79
2023-08-14T21:31:34.333Z,76.74
2023-08-14T21:34:01.113Z,77.06
2023-08-14T21:36:27.644Z,76.90
2023-08-14T21:38:54.105Z,77.04
2023-08-14T21:41:20.603Z,76.98
2023-08-14T21:43:47.153Z,77.30
2023-08-14T21:46:13.743Z,77.69
2023-08-14T21:48:40.273Z,77.81
2023-08-14T21:51:06.845Z,77.50
2023-08-14T21:53:33.236Z,77.72
2023-08-14T21:55:59.684Z,78.20
2023-08-14T21:58:26.121Z,78.20
2023-08-14T22:00:52.675Z,77.95
2023-08-14T22:03:19.234Z,78.38
2023-08-14T22:05:45.750Z,78.49
2023-08-14T22:08:12.307Z,78.90
2023-08-14T22:10:38.796Z,78.87
2023-08-14T22:13:05.300Z,79.28
2023-08-14T22:15:44.548Z,79.45
2023-08-14T22:18:13.670Z,79.77
2023-08-14T22:20:40.910Z,79.85
2023-08-14T22:23:07.401Z,80.34
2023-08-14T22:25:33.898Z,80.07
2023-08-14T22:28:00.412Z,80.50
2023-08-14T22:30:26.898Z,80.30
2023-08-14T22:32:53.343Z,80.52
2023-08-14T22:35:19.813Z,80.47
2023-08-14T22:37:46.243Z,80.55
2023-08-14T22:40:12.675Z,81.02
2023-08-14T22:42:39.169Z,80.69
2023-08-14T22:45:06.503Z,80.92
2023-08-14T22:47:32.998Z,81.23
2023-08-14T22:49:59.524Z,81.13
2023-08-14T22:52:26.949Z,81.34
2023-08-14T22:54:53.341Z,81.15
2023-08-14T22:57:20.051Z,81.49
2023-08-14T22:59:46.740Z,81.77
2023-08-14T23:02:13.648Z,81.94
2023-08-14T23:04:40.099Z,82.12
2023-08-14T23:07:06.642Z,82.02
2023-08-14T23:09:33.147Z,82.33
2023-08-14T23:12:01.773Z,82.19
2023-08-14T23:14:28.262Z,82.45
2023-08-14T23:16:54.769Z,82.54
2023-08-14T23:19:21.552Z,82.72
2023-08-14T23:21:48.074Z,82.73
2023-08-14T23:24:14.812Z,82.72
2023-08-14T23:26:41.262Z,82.89
2023-08-14T23:29:07.796Z,82.89
2023-08-14T23:31:34.346Z,82.87
2023-08-14T23:34:00.960Z,83.23
2023-08-14T23:36:27.376Z,82.92
2023-08-14T23:38:53.946Z,82.44
2023-08-14T23:41:20.377Z,82.25
2023-08-14T23:43:46.814Z,81.93
2023-08-14T23:46:13.663Z,82.13
2023-08-14T23:48:40.149Z,82.25
2023-08-14T23:51:06.678Z,81.43
2023-08-14T23:53:33.150Z,81.39
2023-08-14T23:55:59.670Z,81.30
2023-08-14T23:58:26.134Z,81.51
